Time;durP1;ratioP1;P1;durP2;ratioP2;P2;SDS_P1;SDS_P2;PMS_P1;PMS_P2;Temp;Humidity;BMP_temperature;BMP_pressure;BME280_temperature;BME280_humidity;BME280_pressure;Samples;Min_cycle;Max_cycle;Signal;HPM_P1;HPM_P2
2022/05/29 00:00:39;;;;;;;1.93;1.70;;;6.30;93.20;;;;;;4213743;28;20432;-69
2022/05/29 00:02:42;;;;;;;2.77;1.80;;;6.30;93.00;;;;;;4213753;28;20221;-69
2022/05/29 00:04:43;;;;;;;1.77;1.53;;;6.20;93.10;;;;;;4213678;28;20185;-69
2022/05/29 00:06:47;;;;;;;3.60;1.70;;;6.10;93.30;;;;;;4212944;28;20416;-69
2022/05/29 00:08:47;;;;;;;1.80;1.47;;;6.00;93.50;;;;;;4213889;28;20817;-69
2022/05/29 00:10:48;;;;;;;2.93;1.60;;;5.90;93.90;;;;;;4213682;28;20423;-68
2022/05/29 00:12:48;;;;;;;3.10;1.80;;;5.90;94.50;;;;;;4213775;28;20214;-69
2022/05/29 00:14:49;;;;;;;3.07;2.00;;;5.80;94.50;;;;;;4213711;28;20699;-69
2022/05/29 00:16:50;;;;;;;3.93;1.83;;;5.70;94.70;;;;;;4202955;28;20187;-68
2022/05/29 00:18:50;;;;;;;4.30;1.87;;;5.70;94.80;;;;;;4197205;28;20426;-69
2022/05/29 00:20:54;;;;;;;2.23;1.60;;;5.70;94.90;;;;;;4197154;28;20210;-69
2022/05/29 00:22:55;;;;;;;2.13;1.60;;;5.70;95.50;;;;;;4196950;28;20223;-69
2022/05/29 00:24:56;;;;;;;3.87;1.60;;;5.60;95.50;;;;;;4197036;28;20473;-69
2022/05/29 00:26:56;;;;;;;2.33;1.50;;;5.70;95.80;;;;;;4196563;28;20175;-69
2022/05/29 00:28:57;;;;;;;2.93;1.60;;;5.70;95.80;;;;;;4196761;28;20174;-70
2022/05/29 00:30:58;;;;;;;3.30;1.60;;;5.70;95.70;;;;;;4196365;28;20174;-69
2022/05/29 00:32:58;;;;;;;4.23;1.93;;;5.70;95.70;;;;;;4211853;28;20296;-69
2022/05/29 00:34:59;;;;;;;3.83;1.90;;;5.70;95.70;;;;;;4196558;28;20686;-69
2022/05/29 00:37:00;;;;;;;2.57;1.50;;;5.60;95.80;;;;;;4196188;28;20234;-69
2022/05/29 00:39:01;;;;;;;2.30;1.53;;;5.50;95.80;;;;;;4196543;28;20260;-69
2022/05/29 00:41:43;;;;;;;5.30;2.00;;;5.50;96.00;;;;;;4196732;28;20435;-69
2022/05/29 00:44:05;;;;;;;2.20;1.70;;;5.50;96.30;;;;;;4128517;28;20464;-69
2022/05/29 00:46:06;;;;;;;3.07;1.60;;;5.40;96.60;;;;;;4162815;28;20467;-69
2022/05/29 00:48:07;;;;;;;3.93;2.20;;;5.40;96.40;;;;;;4196401;28;20495;-70
2022/05/29 00:50:08;;;;;;;5.40;2.30;;;5.40;96.70;;;;;;4196419;28;20784;-69
2022/05/29 00:52:18;;;;;;;4.90;1.77;;;5.50;96.50;;;;;;4196221;28;20266;-69
2022/05/29 00:54:20;;;;;;;2.63;1.60;;;5.50;96.30;;;;;;4196456;28;20537;-69
2022/05/29 00:56:21;;;;;;;3.00;2.00;;;5.50;96.40;;;;;;4195596;28;20405;-69
2022/05/29 00:58:23;;;;;;;4.40;1.70;;;5.50;96.40;;;;;;4196123;28;20408;-69
2022/05/29 01:00:26;;;;;;;6.90;2.13;;;5.40;96.70;;;;;;4195939;28;20322;-69
2022/05/29 01:02:27;;;;;;;3.20;1.70;;;5.50;96.90;;;;;;4196182;28;20476;-69
2022/05/29 01:04:31;;;;;;;3.47;1.77;;;5.60;96.50;;;;;;4196090;28;20428;-69
2022/05/29 01:06:33;;;;;;;2.87;2.00;;;5.60;96.30;;;;;;4195250;28;20263;-69
2022/05/29 01:08:37;;;;;;;2.70;1.73;;;5.70;95.90;;;;;;4195794;28;20448;-69
2022/05/29 01:10:46;;;;;;;2.03;1.60;;;5.70;95.80;;;;;;4194963;28;20505;-69
2022/05/29 01:12:59;;;;;;;2.10;1.60;;;5.70;96.00;;;;;;4196309;28;20448;-69
2022/05/29 01:15:37;;;;;;;2.63;1.73;;;5.60;96.10;;;;;;4195601;28;20490;-69
2022/05/29 01:17:54;;;;;;;4.90;1.50;;;5.70;95.90;;;;;;4195678;28;20412;-69
2022/05/29 01:20:06;;;;;;;2.80;1.70;;;5.70;95.90;;;;;;4195526;28;20405;-70
2022/05/29 01:22:24;;;;;;;3.40;1.20;;;5.60;95.60;;;;;;4195735;28;20460;-69
2022/05/29 01:24:46;;;;;;;2.70;2.03;;;5.60;95.50;;;;;;4195957;28;20489;-69
2022/05/29 01:27:01;;;;;;;4.27;1.90;;;5.60;95.60;;;;;;4195031;28;20405;-69
2022/05/29 01:29:05;;;;;;;4.27;1.57;;;5.70;95.70;;;;;;4196009;28;20405;-69
2022/05/29 01:31:31;;;;;;;2.77;1.60;;;5.80;95.80;;;;;;4195628;28;20766;-69
2022/05/29 01:33:43;;;;;;;2.33;1.87;;;5.90;95.40;;;;;;4195733;28;20444;-69
2022/05/29 01:36:02;;;;;;;2.90;1.80;;;5.90;95.20;;;;;;4194847;28;20423;-69
2022/05/29 01:38:06;;;;;;;3.17;1.50;;;5.90;95.10;;;;;;4195341;28;20500;-69
2022/05/29 01:40:28;;;;;;;4.60;1.67;;;5.80;95.40;;;;;;4195558;28;20427;-69
2022/05/29 01:42:37;;;;;;;2.40;1.50;;;5.80;95.60;;;;;;4195453;28;20836;-69
2022/05/29 01:44:40;;;;;;;4.13;1.50;;;5.80;95.60;;;;;;4195529;28;20773;-70
2022/05/29 01:46:45;;;;;;;5.13;1.80;;;5.80;95.50;;;;;;4194718;28;20504;-69
2022/05/29 01:49:26;;;;;;;3.23;1.70;;;5.80;95.90;;;;;;4195230;28;20906;-69
2022/05/29 01:51:52;;;;;;;1.83;1.50;;;5.80;95.90;;;;;;4195518;28;20413;-69
2022/05/29 01:54:01;;;;;;;2.70;1.40;;;5.80;95.90;;;;;;4195086;28;20464;-70
2022/05/29 01:56:22;;;;;;;2.13;1.33;;;5.90;95.60;;;;;;4194944;28;21075;-69
2022/05/29 01:58:33;;;;;;;3.10;1.80;;;5.90;95.30;;;;;;4195340;28;20413;-69
2022/05/29 02:00:34;;;;;;;1.90;1.70;;;5.90;95.00;;;;;;4195315;28;20439;-70
2022/05/29 02:02:42;;;;;;;2.30;1.60;;;5.90;94.60;;;;;;4195245;28;20465;-69
2022/05/29 02:04:47;;;;;;;4.80;1.80;;;6.00;94.90;;;;;;4195042;28;20225;-69
2022/05/29 02:09:11;;;;;;;3.00;1.50;;;6.00;95.50;;;;;;4195547;28;20455;-69
2022/05/29 02:11:17;;;;;;;2.47;1.50;;;6.00;95.20;;;;;;4195076;28;20788;-69
2022/05/29 02:13:44;;;;;;;5.77;1.93;;;6.00;95.30;;;;;;4195381;28;20485;-70
2022/05/29 02:16:01;;;;;;;2.53;1.70;;;6.20;95.10;;;;;;4183326;28;20936;-69
2022/05/29 02:18:05;;;;;;;3.73;1.50;;;6.10;94.70;;;;;;4194739;28;20419;-69
2022/05/29 02:20:34;;;;;;;2.87;2.07;;;6.00;95.40;;;;;;4194868;28;20436;-69
2022/05/29 02:22:36;;;;;;;4.27;1.60;;;6.00;95.40;;;;;;4194666;28;20484;-70
2022/05/29 02:24:42;;;;;;;2.17;1.60;;;6.00;95.30;;;;;;4194989;28;20853;-69
2022/05/29 02:26:49;;;;;;;2.17;1.77;;;6.00;94.90;;;;;;4194527;28;20428;-70
2022/05/29 02:29:02;;;;;;;2.13;1.60;;;6.00;94.80;;;;;;4195057;28;20402;-69
2022/05/29 02:31:14;;;;;;;2.40;1.90;;;6.00;95.10;;;;;;4194877;28;20405;-70
2022/05/29 02:33:42;;;;;;;2.57;1.63;;;5.90;95.00;;;;;;4188240;28;20473;-69
2022/05/29 02:36:19;;;;;;;2.17;1.50;;;5.90;95.40;;;;;;4189812;28;20474;-70
2022/05/29 02:38:22;;;;;;;2.40;1.67;;;5.90;95.50;;;;;;4194801;28;20405;-70
2022/05/29 02:40:47;;;;;;;2.87;1.57;;;5.90;95.50;;;;;;4194778;28;20908;-70
2022/05/29 02:42:47;;;;;;;1.60;1.50;;;5.90;95.40;;;;;;4194689;28;20496;-70
2022/05/29 02:45:00;;;;;;;2.57;1.57;;;5.90;95.50;;;;;;4194689;28;20428;-69
2022/05/29 02:47:19;;;;;;;3.37;1.90;;;5.90;95.50;;;;;;4194487;28;20257;-69
2022/05/29 02:49:32;;;;;;;6.50;1.57;;;6.00;95.20;;;;;;4193833;28;20434;-69
2022/05/29 02:51:39;;;;;;;2.90;1.90;;;6.00;95.30;;;;;;4194770;28;20443;-70
2022/05/29 02:53:44;;;;;;;4.10;1.80;;;6.00;94.90;;;;;;4194605;28;20527;-70
2022/05/29 02:55:45;;;;;;;3.10;2.00;;;6.00;95.10;;;;;;4194057;28;20982;-69
2022/05/29 02:57:46;;;;;;;2.87;1.60;;;6.00;95.10;;;;;;4194750;28;20417;-69
2022/05/29 02:59:51;;;;;;;3.37;1.70;;;6.00;95.10;;;;;;4194489;28;20521;-70
2022/05/29 03:01:58;;;;;;;3.67;1.63;;;6.00;95.10;;;;;;4194755;28;20417;-70
2022/05/29 03:04:10;;;;;;;1.77;1.40;;;6.00;95.20;;;;;;4194425;28;21239;-70
2022/05/29 03:06:36;;;;;;;3.00;1.57;;;6.00;95.00;;;;;;4194009;28;20394;-70
2022/05/29 03:09:03;;;;;;;3.53;2.20;;;6.00;95.00;;;;;;4194559;28;20444;-70
2022/05/29 03:11:25;;;;;;;3.43;1.90;;;6.00;95.20;;;;;;4191761;28;20523;-70
2022/05/29 03:13:44;;;;;;;3.63;1.33;;;6.00;95.20;;;;;;4194666;28;20461;-70
2022/05/29 03:16:09;;;;;;;2.93;1.70;;;6.00;94.80;;;;;;4193908;28;20423;-70
2022/05/29 03:18:12;;;;;;;1.67;1.50;;;6.00;94.90;;;;;;4194562;28;20422;-70
2022/05/29 03:20:37;;;;;;;2.97;1.40;;;6.00;95.00;;;;;;4194300;28;20927;-70
2022/05/29 03:23:06;;;;;;;2.30;1.60;;;5.90;95.10;;;;;;4194364;28;20575;-70
2022/05/29 03:25:13;;;;;;;2.83;1.60;;;6.00;95.20;;;;;;4194383;28;20417;-70
2022/05/29 03:27:21;;;;;;;1.50;1.33;;;5.90;95.30;;;;;;4194193;28;20405;-70
2022/05/29 03:29:29;;;;;;;1.77;1.33;;;5.80;95.50;;;;;;4194482;28;20416;-69
2022/05/29 03:31:30;;;;;;;3.30;1.70;;;5.80;95.70;;;;;;4194314;28;20759;-70
2022/05/29 03:33:30;;;;;;;1.57;1.47;;;5.80;95.40;;;;;;4194386;28;20437;-70
2022/05/29 03:35:32;;;;;;;1.67;1.47;;;5.80;95.40;;;;;;4196734;28;20469;-70
2022/05/29 03:37:35;;;;;;;1.57;1.47;;;5.70;95.20;;;;;;4197366;28;20192;-70
2022/05/29 03:39:35;;;;;;;1.73;1.40;;;5.70;95.40;;;;;;4197317;28;20421;-70
2022/05/29 03:41:44;;;;;;;3.03;1.83;;;5.70;95.10;;;;;;4197286;28;20956;-72
2022/05/29 03:43:44;;;;;;;2.97;1.30;;;5.70;94.70;;;;;;4197606;28;20290;-70
2022/05/29 03:45:45;;;;;;;2.97;1.80;;;5.60;94.80;;;;;;4196679;28;20420;-72
2022/05/29 03:47:45;;;;;;;3.53;1.40;;;5.40;95.00;;;;;;4196974;28;20183;-69
2022/05/29 03:49:46;;;;;;;3.33;2.13;;;5.40;94.90;;;;;;4197277;28;20300;-69
2022/05/29 03:51:47;;;;;;;4.67;1.80;;;5.30;95.00;;;;;;4197158;28;20637;-70
2022/05/29 03:53:47;;;;;;;2.47;1.50;;;5.30;94.80;;;;;;4197248;28;20203;-70
2022/05/29 03:55:48;;;;;;;3.37;1.67;;;5.30;95.00;;;;;;4196532;28;20192;-70
2022/05/29 03:57:49;;;;;;;1.63;1.43;;;5.30;95.30;;;;;;4196870;28;20258;-70
2022/05/29 03:59:49;;;;;;;3.97;1.70;;;5.20;95.40;;;;;;4196803;28;20186;-70
2022/05/29 04:01:50;;;;;;;2.37;1.60;;;5.20;95.70;;;;;;4197048;28;20423;-70
2022/05/29 04:03:53;;;;;;;1.67;1.40;;;5.20;95.90;;;;;;4196797;28;20199;-70
2022/05/29 04:05:55;;;;;;;2.03;1.80;;;5.10;96.30;;;;;;4196582;28;20668;-70
2022/05/29 04:12:33;;;;;;;2.43;1.70;;;5.20;96.20;;;;;;4196920;28;20519;-70
2022/05/29 04:14:36;;;;;;;2.23;1.60;;;5.20;95.70;;;;;;4196737;28;20420;-70
2022/05/29 04:16:37;;;;;;;2.03;1.83;;;5.20;95.60;;;;;;4196392;28;20193;-70
2022/05/29 04:18:38;;;;;;;3.87;1.80;;;5.20;95.50;;;;;;4196511;28;20466;-70
2022/05/29 04:20:38;;;;;;;2.70;1.60;;;5.20;95.40;;;;;;4196353;28;20594;-70
2022/05/29 04:22:39;;;;;;;1.87;1.67;;;5.20;95.20;;;;;;4196670;28;20272;-70
2022/05/29 04:24:39;;;;;;;2.00;1.60;;;5.20;95.10;;;;;;4196710;28;20183;-70
2022/05/29 04:26:40;;;;;;;2.30;1.70;;;5.20;95.30;;;;;;4195980;28;20189;-70
2022/05/29 04:28:41;;;;;;;2.33;1.90;;;5.10;95.80;;;;;;4196450;28;20680;-70
2022/05/29 04:30:42;;;;;;;3.30;1.70;;;5.10;96.00;;;;;;4196395;28;20176;-70
2022/05/29 04:33:01;;;;;;;3.20;1.90;;;5.00;96.30;;;;;;4196110;28;20456;-70
2022/05/29 04:35:01;;;;;;;3.60;1.90;;;5.00;96.40;;;;;;4196153;28;20163;-70
2022/05/29 04:37:03;;;;;;;2.60;1.40;;;5.10;96.30;;;;;;4196015;28;20451;-69
2022/05/29 04:39:03;;;;;;;2.07;1.70;;;5.10;96.30;;;;;;4196366;28;20190;-70
2022/05/29 04:41:06;;;;;;;1.97;1.60;;;5.10;96.30;;;;;;4195569;28;20532;-70
2022/05/29 04:43:07;;;;;;;4.50;1.80;;;5.20;96.10;;;;;;4194897;28;20222;-70
2022/05/29 04:45:08;;;;;;;2.20;1.60;;;5.20;95.70;;;;;;4195619;28;20494;-70
2022/05/29 04:47:09;;;;;;;2.67;1.93;;;5.30;95.50;;;;;;4195468;28;20186;-70
2022/05/29 04:49:10;;;;;;;2.93;1.73;;;5.20;95.50;;;;;;4195827;28;20667;-69
2022/05/29 04:51:10;;;;;;;3.63;1.57;;;5.20;95.70;;;;;;4195883;28;20416;-70
2022/05/29 04:53:11;;;;;;;1.83;1.73;;;5.40;95.80;;;;;;4195887;28;20540;-70
2022/05/29 04:55:12;;;;;;;1.90;1.70;;;5.40;95.50;;;;;;4195741;28;20189;-70
2022/05/29 04:57:12;;;;;;;9.30;2.33;;;5.50;95.20;;;;;;4195531;28;20176;-70
2022/05/29 04:59:13;;;;;;;3.67;1.43;;;5.60;95.20;;;;;;4196000;28;20898;-70
2022/05/29 05:01:14;;;;;;;4.67;1.80;;;5.60;95.10;;;;;;4195935;28;20219;-70
2022/05/29 05:03:14;;;;;;;1.77;1.60;;;5.60;94.90;;;;;;4195556;28;20214;-70
2022/05/29 05:05:16;;;;;;;2.87;1.80;;;5.70;94.80;;;;;;4195446;28;20183;-70
2022/05/29 05:07:16;;;;;;;2.33;1.70;;;5.80;94.60;;;;;;4195431;28;20244;-70
2022/05/29 05:09:17;;;;;;;2.17;1.60;;;5.80;94.20;;;;;;4195978;28;20478;-70
2022/05/29 05:11:18;;;;;;;3.37;1.77;;;5.90;94.10;;;;;;4195904;28;20179;-70
2022/05/29 05:13:18;;;;;;;2.23;1.70;;;5.90;93.70;;;;;;4195827;28;20203;-70
2022/05/29 05:15:19;;;;;;;5.03;1.83;;;6.00;93.50;;;;;;4195393;28;20426;-70
2022/05/29 05:17:19;;;;;;;2.90;1.90;;;6.00;93.50;;;;;;4195473;28;20683;-70
2022/05/29 05:19:21;;;;;;;2.50;2.07;;;6.10;93.50;;;;;;4195644;28;20191;-70
2022/05/29 05:21:23;;;;;;;1.87;1.70;;;6.20;93.30;;;;;;4195387;28;20569;-70
2022/05/29 05:23:24;;;;;;;5.23;2.00;;;6.20;92.60;;;;;;4195429;28;21039;-70
2022/05/29 05:25:24;;;;;;;6.00;1.80;;;6.40;92.40;;;;;;4194754;28;20453;-70
2022/05/29 05:27:25;;;;;;;5.60;1.73;;;6.50;91.60;;;;;;4195435;28;20210;-70
2022/05/29 05:29:26;;;;;;;4.07;1.57;;;6.70;90.60;;;;;;4195202;28;20188;-70
2022/05/29 05:31:26;;;;;;;3.10;1.80;;;6.70;90.60;;;;;;4195403;28;20180;-70
2022/05/29 05:33:27;;;;;;;3.70;1.73;;;6.90;90.10;;;;;;4195307;28;20710;-70
2022/05/29 05:35:28;;;;;;;3.70;1.83;;;6.90;90.10;;;;;;4194637;28;20179;-70
2022/05/29 05:37:28;;;;;;;3.47;1.63;;;7.00;89.50;;;;;;4195405;28;20184;-70
2022/05/29 05:39:29;;;;;;;1.87;1.70;;;7.10;89.80;;;;;;4195221;28;20293;-70
2022/05/29 05:41:30;;;;;;;2.53;1.80;;;7.10;89.30;;;;;;4195217;28;20218;-70
2022/05/29 05:43:31;;;;;;;3.27;1.60;;;7.20;88.40;;;;;;4195085;28;20219;-70
2022/05/29 05:45:32;;;;;;;4.57;2.07;;;7.20;88.20;;;;;;4194623;28;20187;-70
2022/05/29 05:47:34;;;;;;;2.53;1.60;;;7.20;88.70;;;;;;4195376;28;20419;-70
2022/05/29 05:49:36;;;;;;;2.60;1.40;;;7.30;86.50;;;;;;4195087;28;20241;-70
2022/05/29 05:51:37;;;;;;;6.60;1.83;;;7.40;86.00;;;;;;4195171;28;20418;-70
2022/05/29 05:53:39;;;;;;;1.70;1.30;;;7.50;86.90;;;;;;4195257;28;20442;-70
2022/05/29 05:55:40;;;;;;;3.60;1.47;;;7.50;86.60;;;;;;4194742;28;20504;-70
2022/05/29 05:57:41;;;;;;;5.07;1.83;;;7.50;87.00;;;;;;4194773;28;20479;-70
2022/05/29 05:59:41;;;;;;;5.93;2.10;;;7.60;85.00;;;;;;4195041;28;20203;-70
2022/05/29 06:01:42;;;;;;;5.17;1.90;;;7.60;86.80;;;;;;4194948;28;20187;-70
2022/05/29 06:03:43;;;;;;;2.07;1.73;;;7.70;85.90;;;;;;4195147;28;20282;-70
2022/05/29 06:05:43;;;;;;;2.60;1.60;;;7.80;84.70;;;;;;4194030;28;20175;-70
2022/05/29 06:07:44;;;;;;;3.63;1.60;;;7.70;84.20;;;;;;4194939;28;20411;-70
2022/05/29 06:09:44;;;;;;;3.60;2.03;;;7.70;84.80;;;;;;4195060;28;20549;-70
2022/05/29 06:11:45;;;;;;;3.80;1.80;;;7.70;84.60;;;;;;4195069;28;20176;-70
2022/05/29 06:13:46;;;;;;;5.27;1.90;;;7.80;84.10;;;;;;4194758;28;20204;-70
2022/05/29 06:15:47;;;;;;;1.53;1.43;;;7.80;85.30;;;;;;4194606;28;20562;-70
2022/05/29 06:17:47;;;;;;;3.83;1.63;;;7.90;85.90;;;;;;4194969;28;20425;-70
2022/05/29 06:19:48;;;;;;;2.63;1.80;;;8.00;84.80;;;;;;4194923;28;20195;-70
2022/05/29 06:21:48;;;;;;;1.30;1.20;;;8.20;82.60;;;;;;4194936;28;20181;-69
2022/05/29 06:23:49;;;;;;;2.10;1.30;;;8.30;81.90;;;;;;4194999;28;20823;-70
2022/05/29 06:25:49;;;;;;;3.10;1.50;;;8.30;83.30;;;;;;4194350;28;20181;-70
2022/05/29 06:27:51;;;;;;;1.90;1.53;;;8.40;82.00;;;;;;4195128;28;20643;-70
2022/05/29 06:29:51;;;;;;;3.30;1.90;;;8.50;81.30;;;;;;4195095;28;20176;-70
2022/05/29 06:31:53;;;;;;;2.27;1.50;;;8.60;79.00;;;;;;4196376;28;20418;-70
2022/05/29 06:33:55;;;;;;;2.50;1.80;;;8.60;77.60;;;;;;4195306;28;20202;-70
2022/05/29 06:36:06;;;;;;;4.40;1.80;;;8.60;80.90;;;;;;4194796;28;21365;-70
2022/05/29 06:38:07;;;;;;;2.57;1.40;;;8.60;78.70;;;;;;4195113;28;20398;-69
2022/05/29 06:40:09;;;;;;;4.33;1.80;;;8.70;77.80;;;;;;4194928;28;20918;-69
2022/05/29 06:42:11;;;;;;;3.27;1.67;;;8.80;77.20;;;;;;4194458;28;20230;-70
2022/05/29 06:44:11;;;;;;;2.33;1.77;;;8.90;76.20;;;;;;4195015;28;20416;-70
2022/05/29 06:46:13;;;;;;;4.47;1.60;;;9.10;75.20;;;;;;4194415;28;20448;-70
2022/05/29 06:48:14;;;;;;;2.20;1.50;;;9.20;75.30;;;;;;4194800;28;20177;-70
2022/05/29 06:50:15;;;;;;;3.37;1.63;;;9.10;79.40;;;;;;4195100;28;20187;-70
2022/05/29 06:52:16;;;;;;;3.97;1.50;;;9.20;75.30;;;;;;4195199;28;20224;-70
2022/05/29 06:54:16;;;;;;;3.10;1.40;;;9.30;75.00;;;;;;4195623;28;20188;-70
2022/05/29 06:56:18;;;;;;;3.43;1.40;;;9.50;75.20;;;;;;4194732;28;20257;-70
2022/05/29 06:58:19;;;;;;;3.20;1.80;;;9.50;71.00;;;;;;4195418;28;20183;-70
2022/05/29 07:07:19;;;;;;;3.00;1.30;;;10.00;70.60;;;;;;4194811;28;20177;-70
2022/05/29 07:09:19;;;;;;;1.67;1.20;;;10.20;68.70;;;;;;4196402;28;20557;-70
2022/05/29 07:11:23;;;;;;;5.07;1.33;;;10.40;64.50;;;;;;4197718;28;20266;-70
2022/05/29 07:13:23;;;;;;;2.70;1.10;;;10.70;64.70;;;;;;4196841;28;20731;-70
2022/05/29 07:15:24;;;;;;;2.90;1.20;;;10.90;62.70;;;;;;4197649;28;20192;-70
2022/05/29 07:17:27;;;;;;;2.70;1.30;;;11.00;65.50;;;;;;4197607;28;20191;-70
2022/05/29 07:19:28;;;;;;;2.83;1.20;;;11.40;63.00;;;;;;4198354;28;20723;-70
2022/05/29 07:21:30;;;;;;;1.17;1.00;;;11.40;60.60;;;;;;4198397;28;20797;-70
2022/05/29 07:23:31;;;;;;;4.10;1.50;;;11.00;60.70;;;;;;4197859;28;20239;-70
2022/05/29 07:25:32;;;;;;;1.47;1.20;;;10.70;62.60;;;;;;4197496;28;20650;-70
2022/05/29 07:27:32;;;;;;;2.93;1.50;;;10.90;62.70;;;;;;4197886;28;20581;-70
2022/05/29 07:29:33;;;;;;;3.17;1.30;;;11.10;60.80;;;;;;4198111;28;20179;-70
2022/05/29 07:31:34;;;;;;;2.03;1.37;;;11.20;62.00;;;;;;4198158;28;20229;-70
2022/05/29 07:33:34;;;;;;;2.67;1.30;;;11.40;59.20;;;;;;4198293;28;20222;-70
2022/05/29 07:35:36;;;;;;;3.43;1.20;;;11.30;60.30;;;;;;4197540;28;20191;-70
2022/05/29 07:37:37;;;;;;;2.73;1.10;;;11.20;60.30;;;;;;4198133;28;20591;-70
2022/05/29 07:39:40;;;;;;;3.23;1.30;;;11.40;60.20;;;;;;4197790;28;20271;-70
2022/05/29 07:44:00;;;;;;;2.17;1.13;;;12.10;58.30;;;;;;4197781;28;20243;-70
2022/05/29 07:46:01;;;;;;;3.87;1.23;;;11.90;58.80;;;;;;4197037;28;20183;-70
2022/05/29 07:48:01;;;;;;;2.43;1.10;;;11.80;58.40;;;;;;4197652;28;20172;-69
2022/05/29 07:50:04;;;;;;;1.73;1.33;;;11.70;59.60;;;;;;4197639;28;20186;-69
2022/05/29 07:52:05;;;;;;;1.97;1.30;;;11.80;59.30;;;;;;4197509;28;20186;-69
2022/05/29 07:54:05;;;;;;;1.83;1.20;;;12.00;59.00;;;;;;4197799;28;20207;-70
2022/05/29 07:56:07;;;;;;;2.60;1.40;;;12.40;57.50;;;;;;4196615;28;20191;-69
2022/05/29 07:58:08;;;;;;;2.37;1.40;;;12.50;57.80;;;;;;4197459;28;20214;-69
2022/05/29 08:00:11;;;;;;;1.60;1.00;;;12.60;57.20;;;;;;4196449;28;20176;-69
2022/05/29 08:02:11;;;;;;;1.40;1.30;;;12.60;56.30;;;;;;4196251;28;20690;-69
2022/05/29 08:04:12;;;;;;;1.60;1.10;;;12.70;55.80;;;;;;4196461;28;20176;-69
2022/05/29 08:06:12;;;;;;;1.23;1.10;;;12.50;57.20;;;;;;4196220;28;20175;-69
2022/05/29 08:08:13;;;;;;;2.83;1.37;;;12.50;57.00;;;;;;4196539;28;20255;-70
2022/05/29 08:10:15;;;;;;;1.87;1.43;;;12.80;56.20;;;;;;4196881;28;20681;-69
2022/05/29 08:12:16;;;;;;;2.97;1.27;;;12.60;55.60;;;;;;4196858;28;20227;-69
2022/05/29 08:14:16;;;;;;;1.30;1.20;;;12.30;57.00;;;;;;4197239;28;20192;-67
2022/05/29 08:16:18;;;;;;;2.60;1.40;;;12.50;57.20;;;;;;4196227;28;20256;-70
2022/05/29 08:18:19;;;;;;;4.37;1.47;;;12.30;56.40;;;;;;4196788;28;20215;-69
2022/05/29 08:20:19;;;;;;;2.10;1.17;;;12.10;58.70;;;;;;4196158;28;20640;-70
2022/05/29 08:22:20;;;;;;;2.07;1.30;;;12.30;58.00;;;;;;4196512;28;20204;-70
2022/05/29 08:31:31;;;;;;;1.93;1.27;;;13.20;56.90;;;;;;4151593;28;20206;-70
2022/05/29 08:33:33;;;;;;;3.20;1.40;;;12.90;57.50;;;;;;4196520;28;20607;-69
2022/05/29 08:35:34;;;;;;;1.33;1.00;;;12.60;55.30;;;;;;4195841;28;20195;-70
2022/05/29 08:37:36;;;;;;;2.93;1.30;;;12.60;56.70;;;;;;4196379;28;20179;-70
2022/05/29 08:39:36;;;;;;;3.27;1.40;;;12.90;56.50;;;;;;4196200;28;20267;-69
2022/05/29 08:41:48;;;;;;;3.40;1.40;;;12.90;57.10;;;;;;4196340;28;20179;-69
2022/05/29 08:44:12;;;;;;;3.57;2.87;;;13.00;56.20;;;;;;4196419;28;20210;-69
2022/05/29 08:46:17;;;;;;;2.87;2.20;;;13.20;55.10;;;;;;4195655;28;20552;-69
2022/05/29 08:48:23;;;;;;;1.80;1.27;;;13.50;55.20;;;;;;4195787;28;20479;-69
2022/05/29 08:50:32;;;;;;;1.67;1.20;;;14.20;53.80;;;;;;4196283;28;20548;-69
2022/05/29 08:53:04;;;;;;;2.77;1.47;;;14.50;52.10;;;;;;4196164;28;20966;-69
2022/05/29 08:55:26;;;;;;;2.13;1.20;;;14.30;53.30;;;;;;4195844;28;20187;-69
2022/05/29 08:57:45;;;;;;;1.50;1.40;;;14.00;53.70;;;;;;4196424;28;20190;-69
2022/05/29 08:59:51;;;;;;;3.23;2.67;;;13.60;53.60;;;;;;4196302;28;20180;-69
2022/05/29 09:02:11;;;;;;;2.60;1.43;;;12.90;55.70;;;;;;4196065;28;20309;-69
2022/05/29 09:04:30;;;;;;;3.43;1.37;;;13.20;55.60;;;;;;4196005;28;20274;-69
2022/05/29 09:06:39;;;;;;;1.30;1.20;;;13.60;54.60;;;;;;4195538;28;20275;-69
2022/05/29 09:08:45;;;;;;;1.60;1.40;;;14.20;51.90;;;;;;4196298;28;20709;-69
2022/05/29 09:10:51;;;;;;;3.43;1.70;;;14.50;52.40;;;;;;4195965;28;20203;-69
2022/05/29 09:12:53;;;;;;;3.90;1.60;;;13.90;52.40;;;;;;4196027;28;20286;-69
2022/05/29 09:15:06;;;;;;;1.80;1.40;;;13.80;52.40;;;;;;4195916;28;20569;-69
2022/05/29 09:17:31;;;;;;;2.40;1.40;;;14.10;50.70;;;;;;4195557;28;20180;-69
2022/05/29 09:19:47;;;;;;;1.57;1.20;;;14.80;49.50;;;;;;4196696;28;20615;-69
2022/05/29 09:22:05;;;;;;;1.73;1.37;;;14.40;48.90;;;;;;4196420;28;20271;-69
2022/05/29 09:24:13;;;;;;;1.87;1.70;;;14.00;50.20;;;;;;4196549;28;20290;-69
2022/05/29 09:26:18;;;;;;;4.97;1.37;;;13.60;50.00;;;;;;4195847;28;20556;-69
2022/05/29 09:28:25;;;;;;;1.83;1.10;;;13.10;55.00;;;;;;4196340;28;20188;-69
2022/05/29 09:30:26;;;;;;;3.30;1.20;;;13.00;54.70;;;;;;4196278;28;20220;-69
2022/05/29 09:32:30;;;;;;;1.33;1.20;;;12.80;55.00;;;;;;4195593;28;20770;-69
2022/05/29 09:34:32;;;;;;;1.40;1.30;;;12.90;54.50;;;;;;4196540;28;20180;-69
2022/05/29 09:36:59;;;;;;;2.90;1.10;;;12.60;54.20;;;;;;4195938;28;20179;-69
2022/05/29 09:39:25;;;;;;;1.83;1.10;;;12.90;54.70;;;;;;4196245;28;20187;-67
2022/05/29 09:41:29;;;;;;;2.00;1.10;;;13.20;53.90;;;;;;4196648;28;20537;-69
2022/05/29 09:43:30;;;;;;;3.40;1.50;;;12.50;54.80;;;;;;4196450;28;20298;-69
2022/05/29 09:45:32;;;;;;;1.57;1.03;;;12.20;55.50;;;;;;4195586;28;20191;-69
2022/05/29 09:50:25;;;;;;;1.33;1.20;;;12.00;56.80;;;;;;4196279;28;20282;-70
2022/05/29 09:52:33;;;;;;;4.60;1.27;;;12.30;56.80;;;;;;4180732;28;20210;-68
2022/05/29 09:54:43;;;;;;;1.53;1.00;;;12.30;56.70;;;;;;4195228;28;20187;-69
2022/05/29 09:56:44;;;;;;;2.07;1.07;;;12.30;57.00;;;;;;4205863;28;20179;-69
2022/05/29 09:58:48;;;;;;;2.40;1.37;;;11.90;58.90;;;;;;4216927;28;20207;-69
2022/05/29 10:01:02;;;;;;;4.23;1.40;;;11.80;60.20;;;;;;4206936;28;20218;-68
2022/05/29 10:03:09;;;;;;;4.00;1.23;;;11.70;61.50;;;;;;4198418;28;20561;-68
2022/05/29 10:05:21;;;;;;;1.80;1.10;;;11.40;63.10;;;;;;4209257;28;20562;-68
2022/05/29 10:07:35;;;;;;;1.67;1.40;;;10.60;66.00;;;;;;4195804;28;20183;-69
2022/05/29 10:09:57;;;;;;;2.67;1.60;;;10.50;65.80;;;;;;4195364;28;20172;-68
2022/05/29 10:12:15;;;;;;;3.43;1.10;;;10.60;65.50;;;;;;4207756;28;20541;-68
2022/05/29 10:14:25;;;;;;;2.30;1.40;;;10.70;65.50;;;;;;4202000;28;20228;-68
2022/05/29 10:16:38;;;;;;;3.07;1.40;;;10.30;68.70;;;;;;4203324;28;20171;-67
2022/05/29 10:18:42;;;;;;;2.93;1.37;;;10.60;67.20;;;;;;4205238;28;20182;-68
2022/05/29 10:20:44;;;;;;;2.23;1.50;;;11.00;66.30;;;;;;4201259;28;20187;-68
2022/05/29 10:22:45;;;;;;;1.60;1.17;;;11.10;65.80;;;;;;4205879;28;20824;-67
2022/05/29 10:24:47;;;;;;;1.47;1.20;;;11.40;65.00;;;;;;4200540;28;20191;-67
2022/05/29 10:26:54;;;;;;;2.13;1.83;;;11.20;66.60;;;;;;4205970;28;20552;-67
2022/05/29 10:28:55;;;;;;;2.67;1.30;;;10.50;68.30;;;;;;4199499;28;20176;-68
2022/05/29 10:30:59;;;;;;;3.47;1.30;;;10.70;67.20;;;;;;4206790;28;20179;-68
2022/05/29 10:33:21;;;;;;;3.00;1.27;;;10.90;64.70;;;;;;4197805;28;20256;-68
2022/05/29 10:35:27;;;;;;;1.20;1.10;;;11.30;62.70;;;;;;4209735;28;20297;-67
2022/05/29 10:37:48;;;;;;;1.10;1.00;;;11.90;62.00;;;;;;4177909;28;20196;-68
2022/05/29 10:39:49;;;;;;;2.40;0.93;;;12.50;57.40;;;;;;4208060;28;20199;-68
2022/05/29 10:41:55;;;;;;;1.40;1.00;;;12.50;58.50;;;;;;4197466;28;20206;-67
2022/05/29 10:43:56;;;;;;;2.20;1.20;;;12.70;56.20;;;;;;4209368;28;20191;-67
2022/05/29 10:46:10;;;;;;;4.63;4.23;;;12.70;57.30;;;;;;4201403;28;20183;-67
2022/05/29 10:48:11;;;;;;;1.97;0.90;;;12.50;57.70;;;;;;4208038;28;20176;-68
2022/05/29 10:50:15;;;;;;;1.10;0.90;;;12.70;55.90;;;;;;4197300;28;20179;-68
2022/05/29 10:52:44;;;;;;;1.73;1.20;;;12.90;53.90;;;;;;4204294;28;20241;-68
2022/05/29 10:55:06;;;;;;;1.47;1.00;;;12.80;54.60;;;;;;4203196;28;20194;-68
2022/05/29 10:57:31;;;;;;;1.80;1.20;;;13.00;51.80;;;;;;4210732;28;20677;-68
2022/05/29 10:59:49;;;;;;;2.13;1.20;;;12.70;53.50;;;;;;4182207;28;20614;-68
2022/05/29 11:04:49;;;;;;;2.80;2.10;;;12.80;57.10;;;;;;4197424;28;20689;-68
2022/05/29 11:06:52;;;;;;;1.77;1.10;;;12.70;54.40;;;;;;4197005;28;20163;-69
2022/05/29 11:08:59;;;;;;;1.27;1.00;;;13.70;52.50;;;;;;4197545;28;20236;-68
2022/05/29 11:11:22;;;;;;;2.10;1.47;;;14.00;50.80;;;;;;4197556;28;20164;-68
2022/05/29 11:13:49;;;;;;;1.27;1.00;;;13.60;49.30;;;;;;4196978;28;20195;-68
2022/05/29 11:16:08;;;;;;;2.63;1.00;;;13.00;51.60;;;;;;4197015;28;20191;-68
2022/05/29 11:18:30;;;;;;;2.60;1.10;;;13.00;52.00;;;;;;4197354;28;20311;-68
2022/05/29 11:20:55;;;;;;;1.77;0.90;;;13.40;53.00;;;;;;4197378;28;20191;-68
2022/05/29 11:23:07;;;;;;;4.17;1.37;;;13.50;52.30;;;;;;4197270;28;20218;-68
2022/05/29 11:25:38;;;;;;;1.50;1.03;;;13.40;50.20;;;;;;4197193;28;20179;-68
2022/05/29 11:27:47;;;;;;;1.83;1.37;;;13.80;49.50;;;;;;4197210;28;20257;-68
2022/05/29 11:30:06;;;;;;;1.67;1.10;;;14.20;48.90;;;;;;4197591;28;20174;-68
2022/05/29 11:32:25;;;;;;;1.83;0.97;;;14.50;47.70;;;;;;4197376;28;20171;-68